sensor_id;sensor_type;location;lat;lon;timestamp;P1;durP1;ratioP1;P2;durP2;ratioP2
23768;SDS011;12064;50.890;5.424;2023-07-08T00:07:23;8.30;;;5.10;;
23768;SDS011;12064;50.890;5.424;2023-07-08T00:16:15;6.18;;;5.00;;
23768;SDS011;12064;50.890;5.424;2023-07-08T00:25:08;6.97;;;5.05;;
23768;SDS011;12064;50.890;5.424;2023-07-08T00:33:59;6.32;;;5.10;;
23768;SDS011;12064;50.890;5.424;2023-07-08T00:42:53;7.75;;;5.07;;
23768;SDS011;12064;50.890;5.424;2023-07-08T00:51:44;8.25;;;4.72;;
23768;SDS011;12064;50.890;5.424;2023-07-08T01:00:34;8.67;;;5.10;;
23768;SDS011;12064;50.890;5.424;2023-07-08T01:09:29;5.73;;;5.03;;
23768;SDS011;12064;50.890;5.424;2023-07-08T01:18:24;5.85;;;5.18;;
23768;SDS011;12064;50.890;5.424;2023-07-08T01:27:16;7.15;;;5.63;;
23768;SDS011;12064;50.890;5.424;2023-07-08T01:36:10;8.00;;;5.20;;
23768;SDS011;12064;50.890;5.424;2023-07-08T01:45:01;7.32;;;5.50;;
23768;SDS011;12064;50.890;5.424;2023-07-08T01:53:57;7.93;;;5.53;;
23768;SDS011;12064;50.890;5.424;2023-07-08T02:02:48;6.43;;;5.50;;
23768;SDS011;12064;50.890;5.424;2023-07-08T02:11:40;10.00;;;5.55;;
23768;SDS011;12064;50.890;5.424;2023-07-08T02:20:31;7.83;;;5.30;;
23768;SDS011;12064;50.890;5.424;2023-07-08T02:29:21;7.32;;;5.82;;
23768;SDS011;12064;50.890;5.424;2023-07-08T02:38:12;8.50;;;5.37;;
23768;SDS011;12064;50.890;5.424;2023-07-08T02:47:03;9.25;;;5.65;;
23768;SDS011;12064;50.890;5.424;2023-07-08T02:55:54;8.23;;;5.85;;
23768;SDS011;12064;50.890;5.424;2023-07-08T03:04:45;9.27;;;5.97;;
23768;SDS011;12064;50.890;5.424;2023-07-08T03:13:36;6.95;;;5.40;;
23768;SDS011;12064;50.890;5.424;2023-07-08T03:22:27;6.97;;;5.28;;
23768;SDS011;12064;50.890;5.424;2023-07-08T03:31:18;8.57;;;6.18;;
23768;SDS011;12064;50.890;5.424;2023-07-08T03:40:10;8.77;;;6.20;;
23768;SDS011;12064;50.890;5.424;2023-07-08T03:49:01;9.27;;;5.70;;
23768;SDS011;12064;50.890;5.424;2023-07-08T03:57:51;8.77;;;5.82;;
23768;SDS011;12064;50.890;5.424;2023-07-08T04:06:43;8.43;;;6.03;;
23768;SDS011;12064;50.890;5.424;2023-07-08T04:15:35;8.43;;;5.93;;
23768;SDS011;12064;50.890;5.424;2023-07-08T04:24:26;10.82;;;6.53;;
23768;SDS011;12064;50.890;5.424;2023-07-08T04:33:16;7.72;;;5.72;;
23768;SDS011;12064;50.890;5.424;2023-07-08T04:42:07;9.32;;;5.65;;
23768;SDS011;12064;50.890;5.424;2023-07-08T04:50:58;8.43;;;6.32;;
23768;SDS011;12064;50.890;5.424;2023-07-08T04:59:49;7.57;;;5.88;;
23768;SDS011;12064;50.890;5.424;2023-07-08T05:08:39;10.23;;;6.60;;
23768;SDS011;12064;50.890;5.424;2023-07-08T05:17:30;8.75;;;6.93;;
23768;SDS011;12064;50.890;5.424;2023-07-08T05:26:21;9.57;;;7.30;;
23768;SDS011;12064;50.890;5.424;2023-07-08T05:35:12;7.45;;;6.35;;
23768;SDS011;12064;50.890;5.424;2023-07-08T05:44:03;9.15;;;7.20;;
23768;SDS011;12064;50.890;5.424;2023-07-08T05:52:54;9.80;;;7.22;;
23768;SDS011;12064;50.890;5.424;2023-07-08T06:01:44;9.68;;;7.32;;
23768;SDS011;12064;50.890;5.424;2023-07-08T06:10:41;7.67;;;6.27;;
23768;SDS011;12064;50.890;5.424;2023-07-08T06:19:33;8.10;;;6.07;;
23768;SDS011;12064;50.890;5.424;2023-07-08T06:28:23;8.70;;;5.78;;
23768;SDS011;12064;50.890;5.424;2023-07-08T06:37:14;7.37;;;5.50;;
23768;SDS011;12064;50.890;5.424;2023-07-08T06:46:04;6.77;;;6.07;;
23768;SDS011;12064;50.890;5.424;2023-07-08T06:54:56;7.05;;;5.80;;
23768;SDS011;12064;50.890;5.424;2023-07-08T07:03:47;8.07;;;5.77;;
23768;SDS011;12064;50.890;5.424;2023-07-08T07:12:39;6.40;;;5.43;;
23768;SDS011;12064;50.890;5.424;2023-07-08T07:21:30;6.18;;;5.57;;
23768;SDS011;12064;50.890;5.424;2023-07-08T07:30:21;6.00;;;5.40;;
23768;SDS011;12064;50.890;5.424;2023-07-08T07:39:14;7.55;;;5.60;;
23768;SDS011;12064;50.890;5.424;2023-07-08T07:48:05;5.68;;;5.15;;
23768;SDS011;12064;50.890;5.424;2023-07-08T07:56:56;6.40;;;5.53;;
23768;SDS011;12064;50.890;5.424;2023-07-08T08:05:47;6.35;;;5.75;;
23768;SDS011;12064;50.890;5.424;2023-07-08T08:14:38;6.07;;;5.47;;
23768;SDS011;12064;50.890;5.424;2023-07-08T08:23:29;7.32;;;5.10;;
23768;SDS011;12064;50.890;5.424;2023-07-08T08:32:20;5.67;;;5.07;;
23768;SDS011;12064;50.890;5.424;2023-07-08T08:41:14;5.40;;;4.90;;
23768;SDS011;12064;50.890;5.424;2023-07-08T09:08:30;5.72;;;5.13;;
23768;SDS011;12064;50.890;5.424;2023-07-08T09:26:16;5.60;;;5.03;;
23768;SDS011;12064;50.890;5.424;2023-07-08T09:35:16;5.00;;;4.50;;
23768;SDS011;12064;50.890;5.424;2023-07-08T09:53:12;5.30;;;4.78;;
23768;SDS011;12064;50.890;5.424;2023-07-08T10:20:19;5.15;;;4.65;;
23768;SDS011;12064;50.890;5.424;2023-07-08T10:56:37;5.18;;;4.70;;
23768;SDS011;12064;50.890;5.424;2023-07-08T11:23:40;5.30;;;4.80;;
23768;SDS011;12064;50.890;5.424;2023-07-08T11:32:36;4.40;;;4.05;;
23768;SDS011;12064;50.890;5.424;2023-07-08T11:41:30;4.43;;;4.03;;
23768;SDS011;12064;50.890;5.424;2023-07-08T11:50:37;4.55;;;4.07;;
23768;SDS011;12064;50.890;5.424;2023-07-08T11:59:37;4.63;;;4.22;;
23768;SDS011;12064;50.890;5.424;2023-07-08T12:08:33;4.40;;;4.00;;
23768;SDS011;12064;50.890;5.424;2023-07-08T12:17:27;3.83;;;3.53;;
23768;SDS011;12064;50.890;5.424;2023-07-08T12:26:21;5.22;;;4.10;;
23768;SDS011;12064;50.890;5.424;2023-07-08T12:35:23;4.45;;;4.05;;
23768;SDS011;12064;50.890;5.424;2023-07-08T12:44:22;4.40;;;4.00;;
23768;SDS011;12064;50.890;5.424;2023-07-08T12:53:14;4.20;;;3.80;;
23768;SDS011;12064;50.890;5.424;2023-07-08T13:02:09;4.50;;;4.13;;
23768;SDS011;12064;50.890;5.424;2023-07-08T13:11:07;4.38;;;3.97;;
23768;SDS011;12064;50.890;5.424;2023-07-08T13:19:57;4.50;;;4.10;;
23768;SDS011;12064;50.890;5.424;2023-07-08T13:28:48;4.30;;;3.90;;
23768;SDS011;12064;50.890;5.424;2023-07-08T13:37:39;4.10;;;3.80;;
23768;SDS011;12064;50.890;5.424;2023-07-08T13:55:28;4.90;;;3.92;;
23768;SDS011;12064;50.890;5.424;2023-07-08T14:04:21;3.83;;;3.53;;
23768;SDS011;12064;50.890;5.424;2023-07-08T14:13:21;4.78;;;3.88;;
23768;SDS011;12064;50.890;5.424;2023-07-08T14:31:04;4.18;;;3.88;;
23768;SDS011;12064;50.890;5.424;2023-07-08T14:40:09;4.50;;;3.60;;
23768;SDS011;12064;50.890;5.424;2023-07-08T14:49:22;4.30;;;3.90;;
23768;SDS011;12064;50.890;5.424;2023-07-08T14:58:21;4.03;;;3.53;;
23768;SDS011;12064;50.890;5.424;2023-07-08T15:07:19;4.30;;;3.40;;
23768;SDS011;12064;50.890;5.424;2023-07-08T15:16:12;4.20;;;3.70;;
23768;SDS011;12064;50.890;5.424;2023-07-08T15:25:05;3.70;;;3.40;;
23768;SDS011;12064;50.890;5.424;2023-07-08T15:33:56;3.80;;;3.50;;
23768;SDS011;12064;50.890;5.424;2023-07-08T15:42:48;3.77;;;3.40;;
23768;SDS011;12064;50.890;5.424;2023-07-08T15:51:43;3.63;;;3.33;;
23768;SDS011;12064;50.890;5.424;2023-07-08T16:00:34;3.80;;;3.40;;
23768;SDS011;12064;50.890;5.424;2023-07-08T16:09:28;5.18;;;3.58;;
23768;SDS011;12064;50.890;5.424;2023-07-08T16:18:18;3.77;;;3.30;;
23768;SDS011;12064;50.890;5.424;2023-07-08T16:27:09;3.60;;;3.30;;
23768;SDS011;12064;50.890;5.424;2023-07-08T16:36:00;3.85;;;3.40;;
23768;SDS011;12064;50.890;5.424;2023-07-08T16:44:51;3.23;;;3.00;;
23768;SDS011;12064;50.890;5.424;2023-07-08T16:53:42;3.40;;;3.10;;
23768;SDS011;12064;50.890;5.424;2023-07-08T17:02:34;3.70;;;3.30;;
23768;SDS011;12064;50.890;5.424;2023-07-08T17:11:25;5.68;;;3.42;;
23768;SDS011;12064;50.890;5.424;2023-07-08T17:20:29;4.45;;;2.97;;
23768;SDS011;12064;50.890;5.424;2023-07-08T17:29:23;3.58;;;3.28;;
23768;SDS011;12064;50.890;5.424;2023-07-08T17:38:19;4.10;;;3.30;;
23768;SDS011;12064;50.890;5.424;2023-07-08T17:47:12;5.40;;;3.72;;
23768;SDS011;12064;50.890;5.424;2023-07-08T17:56:10;3.63;;;3.17;;
23768;SDS011;12064;50.890;5.424;2023-07-08T18:05:23;3.92;;;3.10;;
23768;SDS011;12064;50.890;5.424;2023-07-08T18:14:16;3.50;;;3.13;;
23768;SDS011;12064;50.890;5.424;2023-07-08T18:23:12;3.53;;;3.22;;
23768;SDS011;12064;50.890;5.424;2023-07-08T18:32:08;7.85;;;3.53;;
23768;SDS011;12064;50.890;5.424;2023-07-08T18:41:01;4.80;;;3.50;;
23768;SDS011;12064;50.890;5.424;2023-07-08T18:49:54;3.55;;;3.10;;
23768;SDS011;12064;50.890;5.424;2023-07-08T18:58:45;3.47;;;2.90;;
23768;SDS011;12064;50.890;5.424;2023-07-08T19:07:36;3.33;;;3.03;;
23768;SDS011;12064;50.890;5.424;2023-07-08T19:16:27;3.50;;;2.92;;
23768;SDS011;12064;50.890;5.424;2023-07-08T19:25:20;3.38;;;3.08;;
23768;SDS011;12064;50.890;5.424;2023-07-08T19:34:13;4.32;;;3.60;;
23768;SDS011;12064;50.890;5.424;2023-07-08T19:43:07;5.43;;;3.67;;
23768;SDS011;12064;50.890;5.424;2023-07-08T19:51:58;3.63;;;2.97;;
23768;SDS011;12064;50.890;5.424;2023-07-08T20:00:49;4.40;;;3.22;;
23768;SDS011;12064;50.890;5.424;2023-07-08T20:09:40;4.70;;;3.22;;
23768;SDS011;12064;50.890;5.424;2023-07-08T20:18:31;4.90;;;3.30;;
23768;SDS011;12064;50.890;5.424;2023-07-08T20:27:23;4.10;;;3.17;;
23768;SDS011;12064;50.890;5.424;2023-07-08T20:36:17;3.20;;;2.80;;
23768;SDS011;12064;50.890;5.424;2023-07-08T20:45:11;3.22;;;2.90;;
23768;SDS011;12064;50.890;5.424;2023-07-08T20:54:02;3.38;;;3.00;;
23768;SDS011;12064;50.890;5.424;2023-07-08T21:02:58;3.00;;;2.70;;
23768;SDS011;12064;50.890;5.424;2023-07-08T21:11:49;3.30;;;3.00;;
23768;SDS011;12064;50.890;5.424;2023-07-08T21:20:39;3.35;;;2.88;;
23768;SDS011;12064;50.890;5.424;2023-07-08T21:29:33;3.65;;;3.00;;
23768;SDS011;12064;50.890;5.424;2023-07-08T21:38:23;3.50;;;2.70;;
23768;SDS011;12064;50.890;5.424;2023-07-08T21:47:15;3.55;;;2.92;;
23768;SDS011;12064;50.890;5.424;2023-07-08T21:56:07;3.77;;;2.57;;
23768;SDS011;12064;50.890;5.424;2023-07-08T22:04:58;3.30;;;2.70;;
23768;SDS011;12064;50.890;5.424;2023-07-08T22:13:49;2.97;;;2.67;;
23768;SDS011;12064;50.890;5.424;2023-07-08T22:22:43;3.15;;;2.65;;
23768;SDS011;12064;50.890;5.424;2023-07-08T22:31:35;3.38;;;3.05;;
23768;SDS011;12064;50.890;5.424;2023-07-08T22:40:28;3.55;;;3.00;;
23768;SDS011;12064;50.890;5.424;2023-07-08T22:49:20;3.20;;;2.90;;
23768;SDS011;12064;50.890;5.424;2023-07-08T22:58:17;3.92;;;2.65;;
23768;SDS011;12064;50.890;5.424;2023-07-08T23:07:17;3.13;;;2.83;;
23768;SDS011;12064;50.890;5.424;2023-07-08T23:25:06;3.20;;;2.83;;
23768;SDS011;12064;50.890;5.424;2023-07-08T23:33:58;2.80;;;2.60;;
23768;SDS011;12064;50.890;5.424;2023-07-08T23:42:52;2.97;;;2.67;;
23768;SDS011;12064;50.890;5.424;2023-07-08T23:51:43;2.75;;;2.55;;
